createdAt,value
2023-04-19T00:00:39.089Z,7.40
2023-04-19T00:03:07.703Z,7.40
2023-04-19T00:05:35.851Z,7.40
2023-04-19T00:08:03.643Z,7.40
2023-04-19T00:10:31.485Z,7.30
2023-04-19T00:12:59.301Z,7.30
2023-04-19T00:15:27.209Z,7.30
2023-04-19T00:17:56.439Z,7.30
2023-04-19T00:20:24.435Z,7.30
2023-04-19T00:22:52.119Z,7.20
2023-04-19T00:25:19.921Z,7.20
2023-04-19T00:27:47.749Z,7.20
2023-04-19T00:30:15.811Z,7.20
2023-04-19T00:32:43.568Z,7.20
2023-04-19T00:35:13.020Z,7.20
2023-04-19T00:37:40.816Z,7.20
2023-04-19T00:40:09.788Z,7.10
2023-04-19T00:42:37.508Z,7.10
2023-04-19T00:45:06.021Z,7.10
2023-04-19T00:47:33.825Z,7.00
2023-04-19T00:50:01.836Z,7.00
2023-04-19T00:52:31.294Z,7.00
2023-04-19T00:55:00.318Z,7.00
2023-04-19T00:57:28.903Z,6.90
2023-04-19T00:59:57.841Z,6.90
2023-04-19T01:02:25.935Z,6.90
2023-04-19T01:04:53.874Z,6.90
2023-04-19T01:07:21.668Z,6.80
2023-04-19T01:09:51.049Z,6.80
2023-04-19T01:12:18.897Z,6.80
2023-04-19T01:14:46.682Z,6.80
2023-04-19T01:17:14.785Z,6.80
2023-04-19T01:19:42.523Z,6.70
2023-04-19T01:22:10.863Z,6.70
2023-04-19T01:24:39.937Z,6.60
2023-04-19T01:27:07.904Z,6.60
2023-04-19T01:29:35.739Z,6.60
2023-04-19T01:32:03.474Z,6.60
2023-04-19T01:34:31.469Z,6.50
2023-04-19T01:36:59.226Z,6.50
2023-04-19T01:39:27.422Z,6.40
2023-04-19T01:41:56.566Z,6.40
2023-04-19T01:44:24.397Z,6.40
2023-04-19T01:46:52.290Z,6.30
2023-04-19T01:49:20.088Z,6.30
2023-04-19T01:51:47.807Z,6.30
2023-04-19T01:54:15.946Z,6.30
2023-04-19T01:56:44.012Z,6.20
2023-04-19T01:59:13.259Z,6.20
2023-04-19T02:01:41.153Z,6.20
2023-04-19T02:04:09.070Z,6.20
2023-04-19T02:06:36.948Z,6.20
2023-04-19T02:09:04.894Z,6.20
2023-04-19T02:11:33.727Z,6.30
2023-04-19T02:14:01.489Z,6.20
2023-04-19T02:16:30.697Z,6.30
2023-04-19T02:18:58.752Z,6.30
2023-04-19T02:21:27.473Z,6.30
2023-04-19T02:23:55.203Z,6.30
2023-04-19T02:26:24.520Z,6.30
2023-04-19T02:28:52.709Z,6.30
2023-04-19T02:31:20.569Z,6.30
2023-04-19T02:33:49.650Z,6.30
2023-04-19T02:36:17.390Z,6.30
2023-04-19T02:38:45.164Z,6.40
2023-04-19T02:41:12.999Z,6.40
2023-04-19T02:43:40.794Z,6.40
2023-04-19T02:46:08.612Z,6.40
2023-04-19T02:48:36.418Z,6.40
2023-04-19T02:51:05.850Z,6.40
2023-04-19T02:53:33.650Z,6.50
2023-04-19T02:56:01.772Z,6.50
2023-04-19T02:58:29.675Z,6.50
2023-04-19T03:00:57.512Z,6.60
2023-04-19T03:03:25.402Z,6.60
2023-04-19T03:05:53.287Z,6.60
2023-04-19T03:08:22.426Z,6.60
2023-04-19T03:10:50.353Z,6.60
2023-04-19T03:13:18.125Z,6.60
2023-04-19T03:15:45.881Z,6.60
2023-04-19T03:18:13.828Z,6.60
2023-04-19T03:20:41.643Z,6.60
2023-04-19T03:23:09.646Z,6.50
2023-04-19T03:25:38.802Z,6.50
2023-04-19T03:28:06.814Z,6.50
2023-04-19T03:30:34.972Z,6.50
2023-04-19T03:33:02.858Z,6.40
2023-04-19T03:35:32.483Z,6.40
2023-04-19T03:38:00.358Z,6.40
2023-04-19T03:40:28.176Z,6.40
2023-04-19T03:42:57.322Z,6.40
2023-04-19T03:45:25.472Z,6.40
2023-04-19T03:47:53.206Z,6.30
2023-04-19T03:50:20.998Z,6.30
2023-04-19T03:52:48.860Z,6.30
2023-04-19T03:55:16.674Z,6.30
2023-04-19T03:57:44.548Z,6.30
2023-04-19T04:00:14.901Z,6.30
2023-04-19T04:02:42.921Z,6.30
2023-04-19T04:05:11.036Z,6.30
2023-04-19T04:07:38.927Z,6.30
2023-04-19T04:10:08.002Z,6.30
2023-04-19T04:12:35.975Z,6.30
2023-04-19T04:15:03.916Z,6.30
2023-04-19T04:17:33.108Z,6.20
2023-04-19T04:20:01.325Z,6.30
2023-04-19T04:22:29.037Z,6.20
2023-04-19T04:24:58.165Z,6.20
2023-04-19T04:27:25.951Z,6.20
2023-04-19T04:29:54.718Z,6.20
2023-04-19T04:32:23.691Z,6.20
2023-04-19T04:34:52.921Z,6.20
2023-04-19T04:37:21.143Z,6.20
2023-04-19T04:39:48.976Z,6.20
2023-04-19T04:42:17.491Z,6.20
2023-04-19T04:44:47.255Z,6.30
2023-04-19T04:47:15.258Z,6.30
2023-04-19T04:49:42.980Z,6.30
2023-04-19T04:52:12.309Z,6.30
2023-04-19T04:54:40.372Z,6.40
2023-04-19T04:57:08.152Z,6.40
2023-04-19T04:59:35.967Z,6.40
2023-04-19T05:02:03.743Z,6.50
2023-04-19T05:04:31.602Z,6.60
2023-04-19T05:06:59.712Z,6.70
2023-04-19T05:09:28.836Z,6.80
2023-04-19T05:11:56.713Z,6.90
2023-04-19T05:14:27.416Z,7.00
2023-04-19T05:16:55.162Z,7.00
2023-04-19T05:19:22.914Z,7.10
2023-04-19T05:21:50.746Z,7.20
2023-04-19T05:24:18.656Z,7.20
2023-04-19T05:26:48.000Z,7.30
2023-04-19T05:29:15.780Z,7.30
2023-04-19T05:31:43.748Z,7.40
2023-04-19T05:34:11.662Z,7.40
2023-04-19T05:36:39.427Z,7.40
2023-04-19T05:39:07.136Z,7.50
2023-04-19T05:41:35.109Z,7.50
2023-04-19T05:44:04.204Z,7.50
2023-04-19T05:46:32.104Z,7.50
2023-04-19T05:49:00.024Z,7.50
2023-04-19T05:51:28.152Z,7.60
2023-04-19T05:53:57.437Z,7.60
2023-04-19T05:56:25.535Z,7.60
2023-04-19T05:58:55.696Z,7.60
2023-04-19T06:01:25.313Z,7.60
2023-04-19T06:03:53.724Z,7.60
2023-04-19T06:06:23.648Z,7.70
2023-04-19T06:08:54.437Z,7.80
2023-04-19T06:11:26.893Z,7.90
2023-04-19T06:13:56.888Z,8.00
2023-04-19T06:16:26.950Z,8.10
2023-04-19T06:18:54.733Z,8.10
2023-04-19T06:21:22.524Z,8.20
2023-04-19T06:23:50.368Z,8.30
2023-04-19T06:26:18.153Z,8.30
2023-04-19T06:28:45.931Z,8.40
2023-04-19T06:31:13.718Z,8.40
2023-04-19T06:33:42.823Z,8.50
2023-04-19T06:36:11.577Z,8.50
2023-04-19T06:38:39.861Z,8.60
2023-04-19T06:41:07.593Z,8.60
2023-04-19T06:43:35.706Z,8.70
2023-04-19T06:46:04.601Z,8.70
2023-04-19T06:48:32.437Z,8.70
2023-04-19T06:51:01.686Z,8.70
2023-04-19T06:53:29.543Z,8.70
2023-04-19T06:55:59.922Z,8.70
2023-04-19T06:58:27.807Z,8.80
2023-04-19T07:00:55.855Z,8.80
2023-04-19T07:03:24.030Z,8.80
2023-04-19T07:05:52.678Z,8.80
2023-04-19T07:08:21.967Z,8.90
2023-04-19T07:10:49.652Z,8.90
2023-04-19T07:13:17.509Z,9.00
2023-04-19T07:15:45.580Z,9.00
2023-04-19T07:18:16.048Z,9.00
2023-04-19T07:20:48.458Z,9.10
2023-04-19T07:23:17.332Z,9.10
2023-04-19T07:25:46.422Z,9.10
2023-04-19T07:28:14.112Z,9.20
2023-04-19T07:30:41.875Z,9.20
2023-04-19T07:33:09.579Z,9.30
2023-04-19T07:35:40.242Z,9.40
2023-04-19T07:38:08.011Z,9.40
2023-04-19T07:40:35.687Z,9.50
2023-04-19T07:43:04.793Z,9.60
2023-04-19T07:45:32.548Z,9.60
2023-04-19T07:48:00.391Z,9.70
2023-04-19T07:50:28.701Z,9.80
2023-04-19T07:52:56.886Z,9.90
2023-04-19T07:55:24.795Z,9.90
2023-04-19T07:57:52.619Z,10.00
2023-04-19T08:00:22.421Z,10.10
2023-04-19T08:02:51.098Z,10.10
2023-04-19T08:05:20.045Z,10.20
2023-04-19T08:07:48.015Z,10.20
2023-04-19T08:10:22.185Z,10.30
2023-04-19T08:15:52.198Z,10.40
2023-04-19T08:18:14.216Z,10.40
2023-04-19T08:20:42.566Z,10.50
2023-04-19T08:23:22.392Z,10.50
2023-04-19T08:25:53.656Z,10.50
2023-04-19T08:28:21.412Z,10.60
2023-04-19T08:30:50.632Z,10.70
2023-04-19T08:33:18.953Z,10.70
2023-04-19T08:35:46.696Z,10.70
2023-04-19T08:38:14.433Z,10.80
2023-04-19T08:40:47.513Z,10.90
2023-04-19T08:43:16.806Z,10.90
2023-04-19T08:45:47.381Z,10.90
2023-04-19T08:48:17.166Z,11.00
2023-04-19T08:51:01.186Z,11.00
2023-04-19T08:53:34.296Z,11.10
2023-04-19T09:01:06.360Z,11.30
2023-04-19T09:03:44.314Z,11.40
2023-04-19T09:06:23.732Z,11.40
2023-04-19T09:08:52.483Z,11.50
2023-04-19T09:11:21.452Z,11.60
2023-04-19T09:13:50.353Z,11.70
2023-04-19T09:16:26.012Z,11.70
2023-04-19T09:19:08.019Z,11.80
2023-04-19T09:21:43.711Z,11.80
2023-04-19T09:24:11.694Z,11.90
2023-04-19T09:26:58.256Z,12.00
2023-04-19T09:29:26.893Z,12.10
2023-04-19T09:31:59.310Z,12.10
2023-04-19T09:34:32.728Z,12.10
2023-04-19T09:37:28.057Z,12.10
2023-04-19T09:40:04.587Z,12.20
2023-04-19T09:48:03.021Z,12.40
2023-04-19T09:50:33.881Z,12.50
2023-04-19T09:53:09.228Z,12.50
2023-04-19T09:55:52.358Z,12.60
2023-04-19T09:58:34.339Z,12.60
2023-04-19T10:01:15.470Z,12.60
2023-04-19T10:03:55.566Z,12.70
2023-04-19T10:08:56.894Z,12.80
2023-04-19T10:11:28.099Z,12.80
2023-04-19T10:14:00.912Z,12.80
2023-04-19T10:16:29.062Z,12.70
2023-04-19T10:18:58.186Z,12.70
2023-04-19T10:21:28.652Z,12.70
2023-04-19T10:23:57.446Z,12.80
2023-04-19T10:26:25.573Z,12.80
2023-04-19T10:28:55.454Z,12.90
2023-04-19T10:31:23.922Z,12.90
2023-04-19T10:33:52.404Z,13.00
2023-04-19T10:36:21.635Z,13.00
2023-04-19T10:38:53.580Z,13.10
2023-04-19T10:41:21.886Z,13.10
2023-04-19T10:44:10.313Z,13.20
2023-04-19T10:46:40.091Z,13.30
2023-04-19T10:49:09.775Z,13.30
2023-04-19T10:51:39.408Z,13.40
2023-04-19T10:54:09.640Z,13.30
2023-04-19T10:57:02.515Z,13.40
2023-04-19T10:59:31.658Z,13.40
2023-04-19T11:02:01.101Z,13.50
2023-04-19T11:05:14.318Z,13.50
2023-04-19T11:07:43.626Z,13.50
2023-04-19T11:10:13.026Z,13.50
2023-04-19T11:12:45.806Z,13.50
2023-04-19T11:15:14.123Z,13.50
2023-04-19T11:17:42.540Z,13.50
2023-04-19T11:20:11.767Z,13.50
2023-04-19T11:22:40.772Z,13.50
2023-04-19T11:25:10.332Z,13.50
2023-04-19T11:27:39.876Z,13.50
2023-04-19T11:30:10.017Z,13.50
2023-04-19T11:32:39.041Z,13.50
2023-04-19T11:35:09.606Z,13.60
2023-04-19T11:37:39.388Z,13.60
2023-04-19T11:40:08.594Z,13.70
2023-04-19T11:42:37.104Z,13.70
2023-04-19T11:45:18.705Z,13.70
2023-04-19T11:47:54.548Z,13.70
2023-04-19T11:50:33.512Z,13.70
2023-04-19T11:53:10.214Z,13.60
2023-04-19T11:55:38.218Z,13.60
2023-04-19T11:58:09.528Z,13.60
2023-04-19T12:00:38.658Z,13.60
2023-04-19T12:03:06.899Z,13.60
2023-04-19T12:05:35.066Z,13.70
2023-04-19T12:08:04.074Z,13.70
2023-04-19T12:10:32.581Z,13.70
2023-04-19T12:13:00.973Z,13.70
2023-04-19T12:15:43.692Z,13.70
2023-04-19T12:18:11.631Z,13.80
2023-04-19T12:20:44.625Z,13.70
2023-04-19T12:23:13.963Z,13.80
2023-04-19T12:25:41.876Z,13.80
2023-04-19T12:28:09.913Z,13.80
2023-04-19T12:30:38.043Z,13.70
2023-04-19T12:33:07.679Z,13.70
2023-04-19T12:35:36.146Z,13.70
2023-04-19T12:38:06.294Z,13.80
2023-04-19T12:40:35.968Z,13.70
2023-04-19T12:43:03.733Z,13.70
2023-04-19T12:45:34.920Z,13.80
2023-04-19T12:48:05.725Z,13.80
2023-04-19T12:50:34.990Z,13.90
2023-04-19T12:53:02.914Z,13.90
2023-04-19T12:55:30.832Z,13.90
2023-04-19T12:58:01.232Z,14.00
2023-04-19T13:00:31.581Z,14.00
2023-04-19T13:02:59.705Z,14.00
2023-04-19T13:05:27.557Z,13.90
2023-04-19T13:07:56.739Z,13.90
2023-04-19T13:10:24.588Z,13.90
2023-04-19T13:12:52.381Z,13.90
2023-04-19T13:15:20.272Z,13.90
2023-04-19T13:17:48.021Z,13.90
2023-04-19T13:20:15.844Z,13.90
2023-04-19T13:22:43.600Z,13.90
2023-04-19T13:25:13.223Z,14.00
2023-04-19T13:27:40.949Z,13.90
2023-04-19T13:30:10.773Z,13.90
2023-04-19T13:32:38.573Z,13.90
2023-04-19T13:35:07.207Z,13.90
2023-04-19T13:37:34.950Z,13.80
2023-04-19T13:40:17.456Z,13.90
2023-04-19T13:42:48.176Z,13.90
2023-04-19T13:45:15.913Z,13.90
2023-04-19T13:47:43.774Z,13.90
2023-04-19T13:50:12.854Z,13.90
2023-04-19T13:52:40.761Z,13.90
2023-04-19T13:55:09.141Z,13.80
2023-04-19T13:57:37.254Z,13.80
2023-04-19T14:00:08.253Z,13.80
2023-04-19T14:02:36.470Z,13.80
2023-04-19T14:05:04.609Z,13.80
2023-04-19T14:07:32.651Z,13.90
2023-04-19T14:10:00.548Z,13.90
2023-04-19T14:12:31.015Z,13.90
2023-04-19T14:14:58.892Z,13.90
2023-04-19T14:17:28.068Z,13.90
2023-04-19T14:19:56.629Z,13.80
2023-04-19T14:22:28.572Z,13.80
2023-04-19T14:24:56.360Z,13.80
2023-04-19T14:27:26.442Z,13.70
2023-04-19T14:29:54.432Z,13.70
2023-04-19T14:32:26.393Z,13.70
2023-04-19T14:34:56.583Z,13.70
2023-04-19T14:37:25.476Z,13.60
2023-04-19T14:39:53.637Z,13.60
2023-04-19T14:42:22.823Z,13.60
2023-04-19T14:44:52.621Z,13.60
2023-04-19T14:47:21.463Z,13.60
2023-04-19T14:49:49.583Z,13.60
2023-04-19T14:52:18.816Z,13.60
2023-04-19T14:54:46.881Z,13.50
2023-04-19T14:57:15.082Z,13.50
2023-04-19T14:59:42.763Z,13.40
2023-04-19T15:02:13.211Z,13.30
2023-04-19T15:04:42.170Z,13.30
2023-04-19T15:07:10.490Z,13.20
2023-04-19T15:09:40.271Z,13.20
2023-04-19T15:12:08.088Z,13.20
2023-04-19T15:14:36.052Z,13.20
2023-04-19T15:17:03.936Z,13.20
2023-04-19T15:19:31.947Z,13.20
2023-04-19T15:21:59.676Z,13.20
2023-04-19T15:24:27.418Z,13.10
2023-04-19T15:26:56.582Z,13.10
2023-04-19T15:29:24.336Z,13.10
2023-04-19T15:31:52.356Z,13.00
2023-04-19T15:34:20.278Z,13.00
2023-04-19T15:36:47.979Z,12.90
2023-04-19T15:39:16.088Z,12.90
2023-04-19T15:41:43.983Z,12.80
2023-04-19T15:44:13.065Z,12.80
2023-04-19T15:46:40.967Z,12.70
2023-04-19T15:49:08.738Z,12.70
2023-04-19T15:51:36.601Z,12.60
2023-04-19T15:54:05.942Z,12.60
2023-04-19T15:56:33.687Z,12.50
2023-04-19T15:59:01.926Z,12.60
2023-04-19T16:01:31.307Z,12.50
2023-04-19T16:03:59.311Z,12.50
2023-04-19T16:06:30.459Z,12.50
2023-04-19T16:08:58.243Z,12.50
2023-04-19T16:11:26.162Z,12.50
2023-04-19T16:13:53.973Z,12.50
2023-04-19T16:16:22.806Z,12.40
2023-04-19T16:18:52.078Z,12.40
2023-04-19T16:21:20.523Z,12.40
2023-04-19T16:23:48.641Z,12.40
2023-04-19T16:26:17.100Z,12.40
2023-04-19T16:28:45.090Z,12.40
2023-04-19T16:31:13.098Z,12.40
2023-04-19T16:33:41.190Z,12.40
2023-04-19T16:36:10.806Z,12.50
2023-04-19T16:38:38.751Z,12.50
2023-04-19T16:41:09.139Z,12.60
2023-04-19T16:46:19.255Z,12.70
2023-04-19T16:48:47.533Z,12.70
2023-04-19T16:51:19.370Z,12.70
2023-04-19T16:53:47.397Z,12.70
2023-04-19T16:56:17.658Z,12.60
2023-04-19T16:58:46.099Z,12.60
2023-04-19T17:01:14.632Z,12.60
2023-04-19T17:03:44.178Z,12.50
2023-04-19T17:06:14.255Z,12.50
2023-04-19T17:08:43.454Z,12.50
2023-04-19T17:11:12.851Z,12.50
2023-04-19T17:13:42.004Z,12.40
2023-04-19T17:16:09.826Z,12.40
2023-04-19T17:18:37.936Z,12.40
2023-04-19T17:21:06.734Z,12.40
2023-04-19T17:23:34.610Z,12.40
2023-04-19T17:26:06.833Z,12.20
2023-04-19T17:28:37.191Z,12.20
2023-04-19T17:31:06.166Z,12.20
2023-04-19T17:33:35.212Z,12.10
2023-04-19T17:36:03.706Z,12.00
2023-04-19T17:38:31.565Z,12.00
2023-04-19T17:41:02.675Z,11.90
2023-04-19T17:43:32.580Z,11.90
2023-04-19T17:46:01.940Z,11.80
2023-04-19T17:48:29.908Z,11.70
2023-04-19T17:51:00.028Z,11.70
2023-04-19T17:53:28.034Z,11.60
2023-04-19T17:55:55.983Z,11.50
2023-04-19T17:58:24.079Z,11.50
2023-04-19T18:00:53.600Z,11.40
2023-04-19T18:03:21.547Z,11.40
2023-04-19T18:05:49.491Z,11.40
2023-04-19T18:08:18.054Z,11.30
2023-04-19T18:10:46.075Z,11.30
2023-04-19T18:13:14.378Z,11.30
2023-04-19T18:15:42.610Z,11.20
2023-04-19T18:18:12.915Z,11.20
2023-04-19T18:20:41.129Z,11.10
2023-04-19T18:23:10.011Z,11.10
2023-04-19T18:25:39.816Z,11.00
2023-04-19T18:28:09.212Z,11.00
2023-04-19T18:30:40.975Z,10.90
2023-04-19T18:33:08.845Z,10.80
2023-04-19T18:35:38.537Z,10.80
2023-04-19T18:38:06.674Z,10.70
2023-04-19T18:40:35.954Z,10.70
2023-04-19T18:43:03.825Z,10.70
2023-04-19T18:45:33.293Z,10.60
2023-04-19T18:48:01.653Z,10.60
2023-04-19T18:50:32.459Z,10.50
2023-04-19T18:53:05.092Z,10.50
2023-04-19T18:55:34.521Z,10.40
2023-04-19T18:58:02.841Z,10.40
2023-04-19T19:00:33.106Z,10.40
2023-04-19T19:03:02.905Z,10.40
2023-04-19T19:05:33.514Z,10.30
2023-04-19T19:08:07.963Z,10.30
2023-04-19T19:11:13.036Z,10.30
2023-04-19T19:13:24.967Z,10.20
2023-04-19T19:15:53.089Z,10.20
2023-04-19T19:18:21.564Z,10.20
2023-04-19T19:20:51.392Z,10.20
2023-04-19T19:23:34.579Z,10.20
2023-04-19T19:26:03.936Z,10.20
2023-04-19T19:28:31.708Z,10.20
2023-04-19T19:30:59.478Z,10.20
2023-04-19T19:33:28.812Z,10.20
2023-04-19T19:35:56.812Z,10.20
2023-04-19T19:38:25.897Z,10.20
2023-04-19T19:41:30.921Z,10.20
2023-04-19T19:43:41.692Z,10.20
2023-04-19T19:46:10.740Z,10.20
2023-04-19T19:48:42.508Z,10.20
2023-04-19T19:51:31.477Z,10.10
2023-04-19T19:53:59.972Z,10.10
2023-04-19T19:56:28.244Z,10.00
2023-04-19T19:58:57.459Z,9.90
2023-04-19T20:01:26.943Z,9.90
2023-04-19T20:03:56.293Z,9.80
2023-04-19T20:07:21.515Z,9.80
2023-04-19T20:09:14.314Z,9.70
2023-04-19T20:11:42.024Z,9.70
2023-04-19T20:14:09.824Z,9.70
2023-04-19T20:16:37.617Z,9.70
2023-04-19T20:19:09.534Z,9.70
2023-04-19T20:21:37.923Z,9.80
2023-04-19T20:24:06.675Z,9.80
2023-04-19T20:26:36.049Z,9.80
2023-04-19T20:29:03.821Z,9.80
2023-04-19T20:31:31.645Z,9.80
2023-04-19T20:33:59.499Z,9.80
2023-04-19T20:36:27.543Z,9.90
2023-04-19T20:38:56.924Z,9.90
2023-04-19T20:41:24.732Z,9.90
2023-04-19T20:43:56.922Z,9.90
2023-04-19T20:46:25.986Z,9.90
2023-04-19T20:48:53.866Z,9.90
2023-04-19T20:51:21.570Z,9.90
2023-04-19T20:53:49.301Z,9.90
2023-04-19T20:56:17.072Z,9.90
2023-04-19T20:58:45.255Z,9.90
2023-04-19T21:01:17.137Z,9.80
2023-04-19T21:03:45.824Z,9.70
2023-04-19T21:06:13.873Z,9.70
2023-04-19T21:08:41.670Z,9.60
2023-04-19T21:11:09.396Z,9.60
2023-04-19T21:13:37.166Z,9.60
2023-04-19T21:16:05.308Z,9.60
2023-04-19T21:18:34.698Z,9.60
2023-04-19T21:21:02.426Z,9.70
2023-04-19T21:23:30.194Z,9.70
2023-04-19T21:25:58.084Z,9.70
2023-04-19T21:28:26.000Z,9.70
2023-04-19T21:30:53.695Z,9.80
2023-04-19T21:33:21.414Z,9.80
2023-04-19T21:35:50.495Z,9.80
2023-04-19T21:38:19.279Z,9.90
2023-04-19T21:40:47.281Z,9.90
2023-04-19T21:43:14.971Z,9.90
2023-04-19T21:45:42.778Z,9.90
2023-04-19T21:48:10.667Z,10.00
2023-04-19T21:50:38.420Z,10.00
2023-04-19T21:53:07.570Z,10.00
2023-04-19T21:55:35.348Z,10.00
2023-04-19T21:58:03.266Z,10.00
2023-04-19T22:00:31.344Z,10.00
2023-04-19T22:02:59.340Z,10.10
2023-04-19T22:05:27.190Z,10.10
2023-04-19T22:07:57.537Z,10.10
2023-04-19T22:10:27.310Z,10.10
2023-04-19T22:12:58.413Z,10.20
2023-04-19T22:15:26.794Z,10.20
2023-04-19T22:17:54.823Z,10.20
2023-04-19T22:20:23.677Z,10.20
2023-04-19T22:22:51.652Z,10.20
2023-04-19T22:25:20.879Z,10.20
2023-04-19T22:27:52.244Z,10.20
2023-04-19T22:30:22.499Z,10.20
2023-04-19T22:32:50.229Z,10.10
2023-04-19T22:35:18.729Z,9.90
2023-04-19T22:37:47.787Z,9.60
2023-04-19T22:40:15.651Z,9.30
2023-04-19T22:42:43.402Z,9.10
2023-04-19T22:45:12.926Z,9.00
2023-04-19T22:47:40.845Z,8.90
2023-04-19T22:50:09.770Z,8.90
2023-04-19T22:52:37.547Z,8.80
2023-04-19T22:55:06.854Z,8.90
2023-04-19T22:57:34.599Z,8.90
2023-04-19T23:00:02.589Z,8.90
2023-04-19T23:02:31.762Z,9.00
2023-04-19T23:05:00.546Z,9.00
2023-04-19T23:07:28.753Z,9.10
2023-04-19T23:09:57.145Z,9.10
2023-04-19T23:12:24.917Z,9.10
2023-04-19T23:14:52.796Z,9.20
2023-04-19T23:17:21.134Z,9.20
2023-04-19T23:19:50.261Z,9.20
2023-04-19T23:22:18.015Z,9.20
2023-04-19T23:24:45.812Z,9.10
2023-04-19T23:27:13.884Z,9.10
2023-04-19T23:29:41.736Z,8.90
2023-04-19T23:32:09.563Z,8.70
2023-04-19T23:34:37.396Z,8.50
2023-04-19T23:37:08.526Z,8.30
2023-04-19T23:39:36.396Z,8.20
2023-04-19T23:42:04.387Z,8.10
2023-04-19T23:44:32.198Z,8.00
2023-04-19T23:47:00.032Z,8.00
2023-04-19T23:49:27.897Z,8.00
2023-04-19T23:51:55.693Z,8.00
2023-04-19T23:56:54.992Z,8.10
2023-04-19T23:59:26.646Z,8.20
